sensor_id;sensor_type;location;lat;lon;timestamp;pressure;altitude;pressure_sealevel;temperature;humidity
8705;BME280;4389;41.932;25.904;2024-01-25T00:00:22;-16082.91;;;0.56;100.00
8705;BME280;4389;41.932;25.904;2024-01-25T00:02:48;-16084.25;;;0.61;100.00
8705;BME280;4389;41.932;25.904;2024-01-25T00:05:16;-16086.78;;;0.71;100.00
8705;BME280;4389;41.932;25.904;2024-01-25T00:07:47;-16088.25;;;0.76;100.00
8705;BME280;4389;41.932;25.904;2024-01-25T00:10:15;-16089.84;;;0.82;100.00
8705;BME280;4389;41.932;25.904;2024-01-25T00:12:42;-16089.84;;;0.82;100.00
8705;BME280;4389;41.932;25.904;2024-01-25T00:15:09;-16089.72;;;0.82;100.00
8705;BME280;4389;41.932;25.904;2024-01-25T00:17:36;-16087.19;;;0.72;100.00
8705;BME280;4389;41.932;25.904;2024-01-25T00:20:04;-16086.91;;;0.71;100.00
8705;BME280;4389;41.932;25.904;2024-01-25T00:22:32;-16088.00;;;0.75;100.00
8705;BME280;4389;41.932;25.904;2024-01-25T00:25:00;-16087.59;;;0.74;100.00
8705;BME280;4389;41.932;25.904;2024-01-25T00:27:27;-16086.13;;;0.68;100.00
8705;BME280;4389;41.932;25.904;2024-01-25T00:29:54;-16085.31;;;0.65;100.00
8705;BME280;4389;41.932;25.904;2024-01-25T00:32:21;-16085.31;;;0.65;100.00
8705;BME280;4389;41.932;25.904;2024-01-25T00:34:48;-16087.44;;;0.73;100.00
8705;BME280;4389;41.932;25.904;2024-01-25T00:37:16;-16085.84;;;0.67;100.00
8705;BME280;4389;41.932;25.904;2024-01-25T00:39:43;-16085.59;;;0.66;100.00
8705;BME280;4389;41.932;25.904;2024-01-25T00:42:12;-16087.59;;;0.74;100.00
8705;BME280;4389;41.932;25.904;2024-01-25T00:44:40;-16086.13;;;0.68;100.00
8705;BME280;4389;41.932;25.904;2024-01-25T00:47:08;-16088.66;;;0.78;100.00
8705;BME280;4389;41.932;25.904;2024-01-25T00:49:36;-16091.19;;;0.87;100.00
8705;BME280;4389;41.932;25.904;2024-01-25T00:52:03;-16094.00;;;0.98;100.00
8705;BME280;4389;41.932;25.904;2024-01-25T00:54:30;-16097.06;;;1.09;100.00
8705;BME280;4389;41.932;25.904;2024-01-25T00:56:58;-16097.19;;;1.10;100.00
8705;BME280;4389;41.932;25.904;2024-01-25T00:59:26;-16094.41;;;0.99;100.00
8705;BME280;4389;41.932;25.904;2024-01-25T01:01:55;-16093.47;;;0.96;100.00
8705;BME280;4389;41.932;25.904;2024-01-25T01:04:25;-16095.34;;;1.03;100.00
8705;BME280;4389;41.932;25.904;2024-01-25T01:06:52;-16095.19;;;1.02;100.00
8705;BME280;4389;41.932;25.904;2024-01-25T01:09:19;-16094.13;;;0.98;100.00
8705;BME280;4389;41.932;25.904;2024-01-25T01:11:47;-16095.19;;;1.02;100.00
8705;BME280;4389;41.932;25.904;2024-01-25T01:14:15;-16096.00;;;1.05;100.00
8705;BME280;4389;41.932;25.904;2024-01-25T01:16:43;-16096.41;;;1.07;100.00
8705;BME280;4389;41.932;25.904;2024-01-25T01:19:10;-16094.41;;;0.99;100.00
8705;BME280;4389;41.932;25.904;2024-01-25T01:21:37;-16091.72;;;0.89;100.00
8705;BME280;4389;41.932;25.904;2024-01-25T01:24:04;-16091.59;;;0.89;100.00
8705;BME280;4389;41.932;25.904;2024-01-25T01:26:31;-16088.78;;;0.78;100.00
8705;BME280;4389;41.932;25.904;2024-01-25T01:28:58;-16088.66;;;0.78;100.00
8705;BME280;4389;41.932;25.904;2024-01-25T01:31:24;-16087.84;;;0.75;100.00
8705;BME280;4389;41.932;25.904;2024-01-25T01:33:52;-16088.25;;;0.76;100.00
8705;BME280;4389;41.932;25.904;2024-01-25T01:36:20;-16087.59;;;0.74;100.00
8705;BME280;4389;41.932;25.904;2024-01-25T01:38:47;-16087.31;;;0.73;100.00
8705;BME280;4389;41.932;25.904;2024-01-25T01:41:14;-16086.91;;;0.71;100.00
8705;BME280;4389;41.932;25.904;2024-01-25T01:43:41;-16088.25;;;0.76;100.00
8705;BME280;4389;41.932;25.904;2024-01-25T01:46:10;-16087.72;;;0.74;100.00
8705;BME280;4389;41.932;25.904;2024-01-25T01:48:38;-16087.44;;;0.73;100.00
8705;BME280;4389;41.932;25.904;2024-01-25T01:51:08;-16084.78;;;0.63;100.00
8705;BME280;4389;41.932;25.904;2024-01-25T01:53:36;-16083.59;;;0.59;100.00
8705;BME280;4389;41.932;25.904;2024-01-25T01:56:03;-16088.25;;;0.76;100.00
8705;BME280;4389;41.932;25.904;2024-01-25T01:58:31;-16084.13;;;0.61;100.00
8705;BME280;4389;41.932;25.904;2024-01-25T02:00:59;-16087.19;;;0.72;100.00
8705;BME280;4389;41.932;25.904;2024-01-25T02:03:26;-16089.19;;;0.80;100.00
8705;BME280;4389;41.932;25.904;2024-01-25T02:05:53;-16087.72;;;0.74;100.00
8705;BME280;4389;41.932;25.904;2024-01-25T02:08:22;-16085.31;;;0.65;100.00
8705;BME280;4389;41.932;25.904;2024-01-25T02:10:48;-16087.19;;;0.72;100.00
8705;BME280;4389;41.932;25.904;2024-01-25T02:13:15;-16090.00;;;0.83;100.00
8705;BME280;4389;41.932;25.904;2024-01-25T02:15:42;-16089.84;;;0.82;100.00
8705;BME280;4389;41.932;25.904;2024-01-25T02:18:09;-16089.84;;;0.82;100.00
8705;BME280;4389;41.932;25.904;2024-01-25T02:20:36;-16089.31;;;0.80;100.00
8705;BME280;4389;41.932;25.904;2024-01-25T02:23:04;-16091.31;;;0.88;100.00
8705;BME280;4389;41.932;25.904;2024-01-25T02:25:31;-16092.00;;;0.90;100.00
8705;BME280;4389;41.932;25.904;2024-01-25T02:27:58;-16093.19;;;0.95;100.00
8705;BME280;4389;41.932;25.904;2024-01-25T02:30:25;-16091.47;;;0.88;100.00
8705;BME280;4389;41.932;25.904;2024-01-25T02:32:51;-16091.47;;;0.88;100.00
8705;BME280;4389;41.932;25.904;2024-01-25T02:35:19;-16090.53;;;0.85;100.00
8705;BME280;4389;41.932;25.904;2024-01-25T02:37:45;-16091.47;;;0.88;100.00
8705;BME280;4389;41.932;25.904;2024-01-25T02:40:14;-16093.59;;;0.96;100.00
8705;BME280;4389;41.932;25.904;2024-01-25T02:42:41;-16096.13;;;1.06;100.00
8705;BME280;4389;41.932;25.904;2024-01-25T02:45:09;-16094.25;;;0.99;100.00
8705;BME280;4389;41.932;25.904;2024-01-25T02:47:36;-16093.06;;;0.94;100.00
8705;BME280;4389;41.932;25.904;2024-01-25T02:50:03;-16088.94;;;0.79;100.00
8705;BME280;4389;41.932;25.904;2024-01-25T02:52:29;-16092.13;;;0.91;100.00
8705;BME280;4389;41.932;25.904;2024-01-25T02:54:56;-16091.47;;;0.88;100.00
8705;BME280;4389;41.932;25.904;2024-01-25T02:57:25;-16087.44;;;0.73;100.00
8705;BME280;4389;41.932;25.904;2024-01-25T02:59:52;-16089.06;;;0.79;100.00
8705;BME280;4389;41.932;25.904;2024-01-25T03:02:18;-16090.25;;;0.84;100.00
8705;BME280;4389;41.932;25.904;2024-01-25T03:04:45;-16089.47;;;0.81;100.00
8705;BME280;4389;41.932;25.904;2024-01-25T03:07:12;-16085.06;;;0.64;100.00
8705;BME280;4389;41.932;25.904;2024-01-25T03:09:39;-16083.72;;;0.59;100.00
8705;BME280;4389;41.932;25.904;2024-01-25T03:12:06;-16085.44;;;0.66;100.00
8705;BME280;4389;41.932;25.904;2024-01-25T03:14:34;-16087.31;;;0.73;100.00
8705;BME280;4389;41.932;25.904;2024-01-25T03:17:01;-16088.13;;;0.76;100.00
8705;BME280;4389;41.932;25.904;2024-01-25T03:19:28;-16089.72;;;0.82;100.00
8705;BME280;4389;41.932;25.904;2024-01-25T03:21:55;-16091.06;;;0.87;100.00
8705;BME280;4389;41.932;25.904;2024-01-25T03:24:22;-16089.72;;;0.82;100.00
8705;BME280;4389;41.932;25.904;2024-01-25T03:26:49;-16083.06;;;0.57;100.00
8705;BME280;4389;41.932;25.904;2024-01-25T03:29:16;-16078.38;;;0.39;100.00
8705;BME280;4389;41.932;25.904;2024-01-25T03:31:44;-16075.44;;;0.28;100.00
8705;BME280;4389;41.932;25.904;2024-01-25T03:34:11;-16077.84;;;0.37;100.00
8705;BME280;4389;41.932;25.904;2024-01-25T03:36:38;-16077.03;;;0.34;100.00
8705;BME280;4389;41.932;25.904;2024-01-25T03:39:06;-16077.56;;;0.36;100.00
8705;BME280;4389;41.932;25.904;2024-01-25T03:41:33;-16079.72;;;0.44;100.00
8705;BME280;4389;41.932;25.904;2024-01-25T03:44:00;-16082.50;;;0.55;100.00
8705;BME280;4389;41.932;25.904;2024-01-25T03:46:27;-16083.19;;;0.57;100.00
8705;BME280;4389;41.932;25.904;2024-01-25T03:48:54;-16082.91;;;0.56;100.00
8705;BME280;4389;41.932;25.904;2024-01-25T03:51:20;-16079.44;;;0.43;100.00
8705;BME280;4389;41.932;25.904;2024-01-25T03:53:49;-16080.78;;;0.48;100.00
8705;BME280;4389;41.932;25.904;2024-01-25T03:56:18;-16080.25;;;0.46;100.00
8705;BME280;4389;41.932;25.904;2024-01-25T03:58:45;-16081.31;;;0.50;100.00
8705;BME280;4389;41.932;25.904;2024-01-25T04:01:12;-16078.09;;;0.38;100.00
8705;BME280;4389;41.932;25.904;2024-01-25T04:03:39;-16076.78;;;0.33;100.00
8705;BME280;4389;41.932;25.904;2024-01-25T04:06:08;-16075.16;;;0.27;100.00
8705;BME280;4389;41.932;25.904;2024-01-25T04:08:34;-16071.44;;;0.13;100.00
8705;BME280;4389;41.932;25.904;2024-01-25T04:11:01;-16072.50;;;0.17;100.00
8705;BME280;4389;41.932;25.904;2024-01-25T04:13:29;-16068.22;;;0.01;100.00
8705;BME280;4389;41.932;25.904;2024-01-25T04:15:56;-16069.28;;;0.05;100.00
8705;BME280;4389;41.932;25.904;2024-01-25T04:18:22;-16070.75;;;0.11;100.00
8705;BME280;4389;41.932;25.904;2024-01-25T04:20:49;-16067.97;;;0.00;100.00
8705;BME280;4389;41.932;25.904;2024-01-25T04:23:18;-16070.75;;;0.11;100.00
8705;BME280;4389;41.932;25.904;2024-01-25T04:25:44;-16070.09;;;0.08;100.00
8705;BME280;4389;41.932;25.904;2024-01-25T04:28:11;-16069.03;;;0.04;100.00
8705;BME280;4389;41.932;25.904;2024-01-25T04:30:38;-16068.63;;;0.03;100.00
8705;BME280;4389;41.932;25.904;2024-01-25T04:33:05;-16069.28;;;0.05;100.00
8705;BME280;4389;41.932;25.904;2024-01-25T04:35:32;-16069.56;;;0.06;100.00
8705;BME280;4389;41.932;25.904;2024-01-25T04:37:58;-16069.28;;;0.05;100.00
8705;BME280;4389;41.932;25.904;2024-01-25T04:40:27;-16064.75;;;-0.12;100.00
8705;BME280;4389;41.932;25.904;2024-01-25T04:42:54;-16064.22;;;-0.13;100.00
8705;BME280;4389;41.932;25.904;2024-01-25T04:45:20;-16067.56;;;-0.01;100.00
8705;BME280;4389;41.932;25.904;2024-01-25T04:47:47;-16066.22;;;-0.06;100.00
8705;BME280;4389;41.932;25.904;2024-01-25T04:50:14;-16064.75;;;-0.12;100.00
8705;BME280;4389;41.932;25.904;2024-01-25T04:52:41;-16063.28;;;-0.17;100.00
8705;BME280;4389;41.932;25.904;2024-01-25T04:55:08;-16061.69;;;-0.23;100.00
8705;BME280;4389;41.932;25.904;2024-01-25T04:57:36;-16063.81;;;-0.15;100.00
8705;BME280;4389;41.932;25.904;2024-01-25T05:00:04;-16064.75;;;-0.12;100.00
8705;BME280;4389;41.932;25.904;2024-01-25T05:02:32;-16063.41;;;-0.16;100.00
8705;BME280;4389;41.932;25.904;2024-01-25T05:04:59;-16062.63;;;-0.19;100.00
8705;BME280;4389;41.932;25.904;2024-01-25T05:07:25;-16062.63;;;-0.19;100.00
8705;BME280;4389;41.932;25.904;2024-01-25T05:09:52;-16063.00;;;-0.18;100.00
8705;BME280;4389;41.932;25.904;2024-01-25T05:12:19;-16064.88;;;-0.11;100.00
8705;BME280;4389;41.932;25.904;2024-01-25T05:14:47;-16061.94;;;-0.22;100.00
8705;BME280;4389;41.932;25.904;2024-01-25T05:17:15;-16060.34;;;-0.28;100.00
8705;BME280;4389;41.932;25.904;2024-01-25T05:19:41;-16058.88;;;-0.33;100.00
8705;BME280;4389;41.932;25.904;2024-01-25T05:22:08;-16057.53;;;-0.38;100.00
8705;BME280;4389;41.932;25.904;2024-01-25T05:24:35;-16059.69;;;-0.30;100.00
8705;BME280;4389;41.932;25.904;2024-01-25T05:27:02;-16062.09;;;-0.21;100.00
8705;BME280;4389;41.932;25.904;2024-01-25T05:29:29;-16059.69;;;-0.30;100.00
8705;BME280;4389;41.932;25.904;2024-01-25T05:31:57;-16059.94;;;-0.29;100.00
8705;BME280;4389;41.932;25.904;2024-01-25T05:34:24;-16060.75;;;-0.26;100.00
8705;BME280;4389;41.932;25.904;2024-01-25T05:36:51;-16062.34;;;-0.20;100.00
8705;BME280;4389;41.932;25.904;2024-01-25T05:39:18;-16063.81;;;-0.15;100.00
8705;BME280;4389;41.932;25.904;2024-01-25T05:41:46;-16063.56;;;-0.16;100.00
8705;BME280;4389;41.932;25.904;2024-01-25T05:44:13;-16064.47;;;-0.13;100.00
8705;BME280;4389;41.932;25.904;2024-01-25T05:46:40;-16066.22;;;-0.06;100.00
8705;BME280;4389;41.932;25.904;2024-01-25T05:49:08;-16070.09;;;0.08;100.00
8705;BME280;4389;41.932;25.904;2024-01-25T05:51:36;-16070.34;;;0.09;100.00
8705;BME280;4389;41.932;25.904;2024-01-25T05:54:03;-16070.91;;;0.11;100.00
8705;BME280;4389;41.932;25.904;2024-01-25T05:56:30;-16071.69;;;0.14;100.00
8705;BME280;4389;41.932;25.904;2024-01-25T05:58:57;-16067.44;;;-0.02;100.00
8705;BME280;4389;41.932;25.904;2024-01-25T06:01:24;-16068.22;;;0.01;100.00
8705;BME280;4389;41.932;25.904;2024-01-25T06:03:51;-16072.50;;;0.17;100.00
8705;BME280;4389;41.932;25.904;2024-01-25T06:06:19;-16074.38;;;0.24;100.00
8705;BME280;4389;41.932;25.904;2024-01-25T06:08:46;-16078.38;;;0.39;100.00
8705;BME280;4389;41.932;25.904;2024-01-25T06:11:13;-16081.03;;;0.49;100.00
8705;BME280;4389;41.932;25.904;2024-01-25T06:13:41;-16081.03;;;0.49;100.00
8705;BME280;4389;41.932;25.904;2024-01-25T06:16:08;-16086.91;;;0.71;100.00
8705;BME280;4389;41.932;25.904;2024-01-25T06:18:34;-16088.38;;;0.77;100.00
8705;BME280;4389;41.932;25.904;2024-01-25T06:21:02;-16090.66;;;0.85;100.00
8705;BME280;4389;41.932;25.904;2024-01-25T06:23:30;-16095.72;;;1.04;100.00
8705;BME280;4389;41.932;25.904;2024-01-25T06:25:57;-16097.06;;;1.09;100.00
8705;BME280;4389;41.932;25.904;2024-01-25T06:28:24;-16097.06;;;1.09;100.00
8705;BME280;4389;41.932;25.904;2024-01-25T06:30:51;-16098.94;;;1.16;100.00
8705;BME280;4389;41.932;25.904;2024-01-25T06:33:17;-16102.94;;;1.31;100.00
8705;BME280;4389;41.932;25.904;2024-01-25T06:35:44;-16103.88;;;1.35;100.00
8705;BME280;4389;41.932;25.904;2024-01-25T06:38:12;-16107.09;;;1.47;100.00
8705;BME280;4389;41.932;25.904;2024-01-25T06:40:40;-16107.22;;;1.47;100.00
8705;BME280;4389;41.932;25.904;2024-01-25T06:43:07;-16113.34;;;1.70;100.00
8705;BME280;4389;41.932;25.904;2024-01-25T06:45:34;-16116.81;;;1.83;100.00
8705;BME280;4389;41.932;25.904;2024-01-25T06:48:01;-16115.75;;;1.79;100.00
8705;BME280;4389;41.932;25.904;2024-01-25T06:50:28;-16114.97;;;1.76;100.00
8705;BME280;4389;41.932;25.904;2024-01-25T06:52:55;-16116.56;;;1.82;100.00
8705;BME280;4389;41.932;25.904;2024-01-25T06:55:22;-16115.22;;;1.77;100.00
8705;BME280;4389;41.932;25.904;2024-01-25T06:57:50;-16113.88;;;1.72;100.00
8705;BME280;4389;41.932;25.904;2024-01-25T07:00:18;-16116.28;;;1.81;100.00
8705;BME280;4389;41.932;25.904;2024-01-25T07:02:47;-16121.91;;;2.02;100.00
8705;BME280;4389;41.932;25.904;2024-01-25T07:05:13;-16122.44;;;2.04;100.00
8705;BME280;4389;41.932;25.904;2024-01-25T07:07:41;-16122.44;;;2.04;100.00
8705;BME280;4389;41.932;25.904;2024-01-25T07:10:08;-16124.84;;;2.13;100.00
8705;BME280;4389;41.932;25.904;2024-01-25T07:12:35;-16126.69;;;2.20;100.00
8705;BME280;4389;41.932;25.904;2024-01-25T07:15:03;-16128.31;;;2.26;100.00
8705;BME280;4389;41.932;25.904;2024-01-25T07:17:30;-16125.38;;;2.15;100.00
8705;BME280;4389;41.932;25.904;2024-01-25T07:19:57;-16129.63;;;2.31;100.00
8705;BME280;4389;41.932;25.904;2024-01-25T07:22:24;-16130.97;;;2.36;100.00
8705;BME280;4389;41.932;25.904;2024-01-25T07:24:51;-16134.72;;;2.50;100.00
8705;BME280;4389;41.932;25.904;2024-01-25T07:27:17;-16130.31;;;2.34;100.00
8705;BME280;4389;41.932;25.904;2024-01-25T07:29:44;-16129.91;;;2.32;100.00
8705;BME280;4389;41.932;25.904;2024-01-25T07:32:13;-16127.78;;;2.24;100.00
8705;BME280;4389;41.932;25.904;2024-01-25T07:34:39;-16130.97;;;2.36;100.00
8705;BME280;4389;41.932;25.904;2024-01-25T07:37:06;-16131.38;;;2.38;100.00
8705;BME280;4389;41.932;25.904;2024-01-25T07:39:33;-16122.97;;;2.06;100.00
8705;BME280;4389;41.932;25.904;2024-01-25T07:42:00;-16128.56;;;2.27;100.00
8705;BME280;4389;41.932;25.904;2024-01-25T07:44:27;-16128.56;;;2.27;100.00
8705;BME280;4389;41.932;25.904;2024-01-25T07:46:54;-16132.03;;;2.40;100.00
8705;BME280;4389;41.932;25.904;2024-01-25T07:49:22;-16136.31;;;2.56;100.00
8705;BME280;4389;41.932;25.904;2024-01-25T07:51:49;-16141.13;;;2.74;100.00
8705;BME280;4389;41.932;25.904;2024-01-25T07:54:16;-16141.13;;;2.74;100.00
8705;BME280;4389;41.932;25.904;2024-01-25T07:56:43;-16142.59;;;2.80;100.00
8705;BME280;4389;41.932;25.904;2024-01-25T07:59:10;-16144.72;;;2.88;100.00
8705;BME280;4389;41.932;25.904;2024-01-25T08:01:37;-16147.00;;;2.96;100.00
8705;BME280;4389;41.932;25.904;2024-01-25T08:04:03;-16150.19;;;3.08;100.00
8705;BME280;4389;41.932;25.904;2024-01-25T08:06:32;-16154.06;;;3.23;100.00
8705;BME280;4389;41.932;25.904;2024-01-25T08:08:59;-16153.38;;;3.20;100.00
8705;BME280;4389;41.932;25.904;2024-01-25T08:11:26;-16153.66;;;3.21;100.00
8705;BME280;4389;41.932;25.904;2024-01-25T08:13:52;-16158.47;;;3.39;100.00
8705;BME280;4389;41.932;25.904;2024-01-25T08:16:19;-16162.72;;;3.55;100.00
8705;BME280;4389;41.932;25.904;2024-01-25T08:18:46;-16166.88;;;3.71;100.00
8705;BME280;4389;41.932;25.904;2024-01-25T08:21:14;-16168.47;;;3.77;100.00
8705;BME280;4389;41.932;25.904;2024-01-25T08:23:43;-16168.19;;;3.76;100.00
8705;BME280;4389;41.932;25.904;2024-01-25T08:26:09;-16163.53;;;3.58;100.00
8705;BME280;4389;41.932;25.904;2024-01-25T08:28:38;-16167.00;;;3.71;100.00
8705;BME280;4389;41.932;25.904;2024-01-25T08:31:05;-16169.41;;;3.80;100.00
8705;BME280;4389;41.932;25.904;2024-01-25T08:33:32;-16173.78;;;3.97;100.00
8705;BME280;4389;41.932;25.904;2024-01-25T08:35:59;-16172.59;;;3.92;100.00
8705;BME280;4389;41.932;25.904;2024-01-25T08:38:26;-16174.47;;;3.99;100.00
8705;BME280;4389;41.932;25.904;2024-01-25T08:40:54;-16175.25;;;4.02;100.00
8705;BME280;4389;41.932;25.904;2024-01-25T08:43:21;-16177.94;;;4.12;100.00
8705;BME280;4389;41.932;25.904;2024-01-25T08:45:47;-16181.94;;;4.27;100.00
8705;BME280;4389;41.932;25.904;2024-01-25T08:48:14;-16181.94;;;4.27;100.00
8705;BME280;4389;41.932;25.904;2024-01-25T08:50:41;-16181.41;;;4.25;100.00
8705;BME280;4389;41.932;25.904;2024-01-25T08:53:08;-16185.13;;;4.39;100.00
8705;BME280;4389;41.932;25.904;2024-01-25T08:55:35;-16185.66;;;4.41;100.00
8705;BME280;4389;41.932;25.904;2024-01-25T08:58:06;-16187.25;;;4.47;100.00
8705;BME280;4389;41.932;25.904;2024-01-25T09:00:33;-16186.19;;;4.43;100.00
8705;BME280;4389;41.932;25.904;2024-01-25T09:03:00;-16189.66;;;4.56;100.00
8705;BME280;4389;41.932;25.904;2024-01-25T09:05:26;-16192.34;;;4.66;100.00
8705;BME280;4389;41.932;25.904;2024-01-25T09:07:54;-16197.28;;;4.84;100.00
8705;BME280;4389;41.932;25.904;2024-01-25T09:10:21;-16202.72;;;5.05;100.00
8705;BME280;4389;41.932;25.904;2024-01-25T09:12:47;-16204.59;;;5.12;100.00
8705;BME280;4389;41.932;25.904;2024-01-25T09:15:16;-16208.06;;;5.25;100.00
8705;BME280;4389;41.932;25.904;2024-01-25T09:17:43;-16210.72;;;5.35;100.00
8705;BME280;4389;41.932;25.904;2024-01-25T09:20:10;-16212.34;;;5.41;100.00
8705;BME280;4389;41.932;25.904;2024-01-25T09:22:37;-16215.53;;;5.53;100.00
8705;BME280;4389;41.932;25.904;2024-01-25T09:25:05;-16218.59;;;5.64;100.00
8705;BME280;4389;41.932;25.904;2024-01-25T09:27:32;-16223.53;;;5.83;100.00
8705;BME280;4389;41.932;25.904;2024-01-25T09:29:59;-16229.66;;;6.06;100.00
8705;BME280;4389;41.932;25.904;2024-01-25T09:32:27;-16235.00;;;6.26;100.00
8705;BME280;4389;41.932;25.904;2024-01-25T09:34:54;-16241.13;;;6.49;100.00
8705;BME280;4389;41.932;25.904;2024-01-25T09:37:21;-16245.91;;;6.67;96.70
8705;BME280;4389;41.932;25.904;2024-01-25T09:39:49;-16250.19;;;6.83;97.18
8705;BME280;4389;41.932;25.904;2024-01-25T09:42:16;-16255.25;;;7.02;96.03
8705;BME280;4389;41.932;25.904;2024-01-25T09:44:43;-16259.63;;;7.18;95.07
8705;BME280;4389;41.932;25.904;2024-01-25T09:47:10;-16265.63;;;7.41;94.23
8705;BME280;4389;41.932;25.904;2024-01-25T09:49:39;-16270.03;;;7.57;93.55
8705;BME280;4389;41.932;25.904;2024-01-25T09:52:10;-16272.56;;;7.67;92.72
8705;BME280;4389;41.932;25.904;2024-01-25T09:54:39;-16277.47;;;7.85;92.72
8705;BME280;4389;41.932;25.904;2024-01-25T09:57:11;-16283.47;;;8.08;90.03
8705;BME280;4389;41.932;25.904;2024-01-25T09:59:41;-16287.75;;;8.24;88.92
8705;BME280;4389;41.932;25.904;2024-01-25T10:02:09;-16292.13;;;8.40;88.41
8705;BME280;4389;41.932;25.904;2024-01-25T10:04:36;-16294.94;;;8.51;89.34
8705;BME280;4389;41.932;25.904;2024-01-25T10:07:04;-16302.25;;;8.78;88.03
8705;BME280;4389;41.932;25.904;2024-01-25T10:09:38;-16307.72;;;8.98;85.82
8705;BME280;4389;41.932;25.904;2024-01-25T10:12:05;-16311.69;;;9.13;85.49
8705;BME280;4389;41.932;25.904;2024-01-25T10:14:32;-16316.88;;;9.33;85.78
8705;BME280;4389;41.932;25.904;2024-01-25T10:17:00;-16321.28;;;9.49;82.78
8705;BME280;4389;41.932;25.904;2024-01-25T10:19:28;-16325.81;;;9.66;83.95
8705;BME280;4389;41.932;25.904;2024-01-25T10:21:55;-16330.59;;;9.84;83.43
8705;BME280;4389;41.932;25.904;2024-01-25T10:24:24;-16337.00;;;10.08;82.31
8705;BME280;4389;41.932;25.904;2024-01-25T10:26:51;-16345.50;;;10.40;85.88
8705;BME280;4389;41.932;25.904;2024-01-25T10:29:18;-16352.94;;;10.68;81.54
8705;BME280;4389;41.932;25.904;2024-01-25T10:31:45;-16355.88;;;10.79;77.21
8705;BME280;4389;41.932;25.904;2024-01-25T10:34:13;-16358.13;;;10.88;76.81
8705;BME280;4389;41.932;25.904;2024-01-25T10:36:40;-16360.38;;;10.96;76.25
8705;BME280;4389;41.932;25.904;2024-01-25T10:39:08;-16363.84;;;11.09;75.06
8705;BME280;4389;41.932;25.904;2024-01-25T10:41:37;-16375.81;;;11.54;69.53
8705;BME280;4389;41.932;25.904;2024-01-25T10:44:04;-16392.56;;;12.17;61.95
8705;BME280;4389;41.932;25.904;2024-01-25T10:46:32;-16407.84;;;12.75;58.49
8705;BME280;4389;41.932;25.904;2024-01-25T10:49:00;-16415.03;;;13.02;55.86
8705;BME280;4389;41.932;25.904;2024-01-25T10:51:29;-16418.47;;;13.15;54.12
8705;BME280;4389;41.932;25.904;2024-01-25T10:53:57;-16422.06;;;13.28;52.77
8705;BME280;4389;41.932;25.904;2024-01-25T10:56:24;-16425.00;;;13.39;53.02
8705;BME280;4389;41.932;25.904;2024-01-25T10:58:53;-16427.13;;;13.47;54.27
8705;BME280;4389;41.932;25.904;2024-01-25T11:01:20;-16422.31;;;13.29;53.59
8705;BME280;4389;41.932;25.904;2024-01-25T11:03:47;-16417.81;;;13.12;53.76
8705;BME280;4389;41.932;25.904;2024-01-25T11:06:14;-16416.34;;;13.07;54.84
8705;BME280;4389;41.932;25.904;2024-01-25T11:08:41;-16419.13;;;13.17;54.03
8705;BME280;4389;41.932;25.904;2024-01-25T11:11:10;-16420.72;;;13.23;53.95
8705;BME280;4389;41.932;25.904;2024-01-25T11:13:39;-16423.00;;;13.32;54.14
8705;BME280;4389;41.932;25.904;2024-01-25T11:16:15;-16425.78;;;13.42;53.86
8705;BME280;4389;41.932;25.904;2024-01-25T11:18:49;-16424.31;;;13.37;52.20
8705;BME280;4389;41.932;25.904;2024-01-25T11:21:25;-16419.13;;;13.17;51.45
8705;BME280;4389;41.932;25.904;2024-01-25T11:23:59;-16417.69;;;13.12;52.23
8705;BME280;4389;41.932;25.904;2024-01-25T11:26:27;-16416.75;;;13.08;52.10
8705;BME280;4389;41.932;25.904;2024-01-25T11:28:54;-16417.28;;;13.10;51.07
8705;BME280;4389;41.932;25.904;2024-01-25T11:31:23;-16414.88;;;13.01;52.20
8705;BME280;4389;41.932;25.904;2024-01-25T11:33:51;-16415.41;;;13.03;52.41
8705;BME280;4389;41.932;25.904;2024-01-25T11:36:20;-16416.75;;;13.08;51.73
8705;BME280;4389;41.932;25.904;2024-01-25T11:38:48;-16421.00;;;13.24;51.64
8705;BME280;4389;41.932;25.904;2024-01-25T11:41:15;-16419.81;;;13.20;51.34
8705;BME280;4389;41.932;25.904;2024-01-25T11:43:42;-16423.94;;;13.35;50.78
8705;BME280;4389;41.932;25.904;2024-01-25T11:46:09;-16429.75;;;13.57;49.86
8705;BME280;4389;41.932;25.904;2024-01-25T11:48:40;-16431.63;;;13.64;50.39
8705;BME280;4389;41.932;25.904;2024-01-25T11:51:09;-16430.03;;;13.58;48.27
8705;BME280;4389;41.932;25.904;2024-01-25T11:53:36;-16430.44;;;13.60;47.84
8705;BME280;4389;41.932;25.904;2024-01-25T11:56:04;-16431.63;;;13.64;48.80
8705;BME280;4389;41.932;25.904;2024-01-25T11:58:33;-16429.75;;;13.57;47.31
8705;BME280;4389;41.932;25.904;2024-01-25T12:01:02;-16432.81;;;13.68;47.33
8705;BME280;4389;41.932;25.904;2024-01-25T12:03:31;-16433.75;;;13.72;47.94
8705;BME280;4389;41.932;25.904;2024-01-25T12:06:00;-16432.97;;;13.69;49.10
8705;BME280;4389;41.932;25.904;2024-01-25T12:08:27;-16436.94;;;13.84;48.12
8705;BME280;4389;41.932;25.904;2024-01-25T12:11:03;-16437.34;;;13.85;47.07
8705;BME280;4389;41.932;25.904;2024-01-25T12:13:32;-16436.66;;;13.83;47.09
8705;BME280;4389;41.932;25.904;2024-01-25T12:15:59;-16435.06;;;13.77;47.79
8705;BME280;4389;41.932;25.904;2024-01-25T12:18:27;-16431.63;;;13.64;47.66
8705;BME280;4389;41.932;25.904;2024-01-25T12:20:54;-16432.97;;;13.69;47.12
8705;BME280;4389;41.932;25.904;2024-01-25T12:23:22;-16432.03;;;13.66;46.73
8705;BME280;4389;41.932;25.904;2024-01-25T12:25:49;-16430.97;;;13.62;47.96
8705;BME280;4389;41.932;25.904;2024-01-25T12:28:16;-16429.75;;;13.57;47.69
8705;BME280;4389;41.932;25.904;2024-01-25T12:30:43;-16430.44;;;13.60;48.35
8705;BME280;4389;41.932;25.904;2024-01-25T12:33:10;-16429.25;;;13.55;48.86
8705;BME280;4389;41.932;25.904;2024-01-25T12:35:37;-16431.88;;;13.65;46.88
8705;BME280;4389;41.932;25.904;2024-01-25T12:38:04;-16435.88;;;13.80;46.97
8705;BME280;4389;41.932;25.904;2024-01-25T12:40:32;-16439.47;;;13.93;46.61
8705;BME280;4389;41.932;25.904;2024-01-25T12:42:59;-16435.06;;;13.77;46.03
8705;BME280;4389;41.932;25.904;2024-01-25T12:45:26;-16435.06;;;13.77;46.43
8705;BME280;4389;41.932;25.904;2024-01-25T12:47:53;-16434.56;;;13.75;46.62
8705;BME280;4389;41.932;25.904;2024-01-25T12:50:20;-16431.63;;;13.64;46.65
8705;BME280;4389;41.932;25.904;2024-01-25T12:52:47;-16434.00;;;13.73;46.71
8705;BME280;4389;41.932;25.904;2024-01-25T12:55:15;-16432.69;;;13.68;46.55
8705;BME280;4389;41.932;25.904;2024-01-25T12:57:43;-16429.63;;;13.57;46.07
8705;BME280;4389;41.932;25.904;2024-01-25T13:00:11;-16430.44;;;13.60;46.26